createdAt,value
2022-10-30T00:00:00.299Z,40.64
2022-10-30T00:01:00.289Z,42.60
2022-10-30T00:02:00.492Z,42.15
2022-10-30T00:03:00.846Z,39.70
2022-10-30T00:04:00.294Z,45.91
2022-10-30T00:05:00.263Z,38.13
2022-10-30T00:06:00.252Z,44.90
2022-10-30T00:07:00.245Z,44.81
2022-10-30T00:08:00.785Z,38.13
2022-10-30T00:09:00.231Z,38.27
2022-10-30T00:10:00.255Z,48.75
2022-10-30T00:11:00.214Z,43.94
2022-10-30T00:12:00.211Z,40.61
2022-10-30T00:13:00.199Z,42.96
2022-10-30T00:14:00.193Z,50.14
2022-10-30T00:15:00.213Z,40.96
2022-10-30T00:16:00.175Z,42.32
2022-10-30T00:17:00.167Z,49.52
2022-10-30T00:18:00.656Z,42.60
2022-10-30T00:19:00.165Z,41.01
2022-10-30T00:20:00.173Z,46.23
2022-10-30T00:21:03.239Z,41.75
2022-10-30T00:23:44.119Z,48.55
2022-10-30T00:24:44.135Z,43.50
2022-10-30T00:25:44.106Z,47.26
2022-10-30T00:26:44.100Z,46.03
2022-10-30T00:27:44.090Z,44.02
2022-10-30T00:28:44.079Z,38.71
2022-10-30T00:29:44.100Z,43.71
2022-10-30T00:30:44.066Z,42.14
2022-10-30T00:31:45.229Z,50.29
2022-10-30T00:32:45.214Z,48.68
2022-10-30T00:33:45.209Z,47.23
2022-10-30T00:34:45.229Z,39.31
2022-10-30T00:36:45.182Z,45.99
2022-10-30T00:37:45.177Z,49.45
2022-10-30T00:38:45.167Z,44.51
2022-10-30T00:39:45.189Z,45.55
2022-10-30T00:40:45.153Z,39.22
2022-10-30T00:41:45.149Z,41.63
2022-10-30T00:42:45.139Z,42.63
2022-10-30T00:43:45.136Z,42.53
2022-10-30T00:44:45.149Z,49.09
2022-10-30T00:45:45.138Z,44.89
2022-10-30T00:46:45.113Z,41.49
2022-10-30T00:47:45.123Z,47.74
2022-10-30T00:48:45.096Z,39.64
2022-10-30T00:49:45.112Z,47.43
2022-10-30T00:50:45.086Z,42.70
2022-10-30T00:51:45.071Z,38.80
2022-10-30T00:52:45.069Z,41.14
2022-10-30T00:53:45.055Z,39.96
2022-10-30T00:54:45.080Z,39.79
2022-10-30T00:55:45.039Z,47.28
2022-10-30T00:56:45.034Z,51.09
2022-10-30T00:57:45.032Z,53.92
2022-10-30T00:58:45.023Z,54.49
2022-10-30T00:59:45.038Z,56.14
2022-10-30T01:00:45.007Z,45.73
2022-10-30T01:01:45.178Z,38.42
2022-10-30T01:02:45.107Z,37.91
2022-10-30T01:03:44.988Z,42.31
2022-10-30T01:04:45.008Z,41.95
2022-10-30T01:05:44.972Z,42.78
2022-10-30T01:06:44.959Z,43.84
2022-10-30T01:07:44.954Z,55.88
2022-10-30T01:08:45.008Z,39.05
2022-10-30T01:09:44.958Z,41.61
2022-10-30T01:10:44.925Z,39.63
2022-10-30T01:11:44.915Z,41.45
2022-10-30T01:12:44.919Z,41.94
2022-10-30T01:13:44.900Z,38.93
2022-10-30T01:14:44.920Z,39.13
2022-10-30T01:15:44.888Z,42.82
2022-10-30T01:16:44.879Z,38.59
2022-10-30T01:17:44.873Z,44.52
2022-10-30T01:18:44.861Z,41.81
2022-10-30T01:19:44.879Z,48.18
2022-10-30T01:20:44.852Z,41.95
2022-10-30T01:21:44.836Z,42.87
2022-10-30T01:22:44.827Z,42.69
2022-10-30T01:23:44.829Z,42.07
2022-10-30T01:24:44.835Z,42.71
2022-10-30T01:25:45.811Z,48.77
2022-10-30T01:26:44.806Z,54.18
2022-10-30T01:27:44.802Z,54.61
2022-10-30T01:28:44.803Z,54.30
2022-10-30T01:29:44.802Z,54.18
2022-10-30T01:30:44.782Z,56.36
2022-10-30T01:31:44.783Z,55.73
2022-10-30T01:32:44.758Z,55.08
2022-10-30T01:33:44.755Z,55.19
2022-10-30T01:34:44.776Z,57.08
2022-10-30T01:35:44.733Z,54.29
2022-10-30T01:36:44.727Z,46.10
2022-10-30T01:37:44.727Z,42.28
2022-10-30T01:38:44.714Z,39.98
2022-10-30T01:39:44.740Z,45.94
2022-10-30T01:40:44.696Z,38.00
2022-10-30T01:41:44.693Z,43.58
2022-10-30T01:42:44.684Z,45.58
2022-10-30T01:44:17.324Z,44.40
2022-10-30T01:44:44.695Z,48.45
2022-10-30T01:45:44.664Z,44.43
2022-10-30T01:46:44.655Z,42.18
2022-10-30T01:47:44.646Z,44.13
2022-10-30T01:48:44.640Z,39.87
2022-10-30T01:49:44.656Z,36.89
2022-10-30T01:50:44.641Z,37.05
2022-10-30T01:51:44.607Z,40.99
2022-10-30T01:52:44.594Z,47.49
2022-10-30T01:53:45.597Z,46.95
2022-10-30T01:54:44.622Z,57.54
2022-10-30T01:55:44.582Z,43.74
2022-10-30T01:56:44.588Z,40.61
2022-10-30T01:57:44.568Z,42.95
2022-10-30T01:58:44.556Z,45.52
2022-10-30T01:59:44.571Z,46.19
2022-10-30T02:00:44.600Z,49.40
2022-10-30T02:01:44.628Z,37.32
2022-10-30T02:02:44.606Z,38.50
2022-10-30T02:03:44.530Z,39.68
2022-10-30T02:04:44.540Z,43.28
2022-10-30T02:05:44.504Z,42.66
2022-10-30T02:06:44.504Z,41.18
2022-10-30T02:07:44.493Z,41.36
2022-10-30T02:08:44.486Z,36.73
2022-10-30T02:09:44.502Z,38.39
2022-10-30T02:10:44.467Z,39.89
2022-10-30T02:11:44.456Z,50.11
2022-10-30T02:12:44.455Z,52.11
2022-10-30T02:13:44.440Z,47.06
2022-10-30T02:14:44.459Z,36.70
2022-10-30T02:15:44.423Z,36.95
2022-10-30T02:16:44.420Z,39.47
2022-10-30T02:17:44.421Z,38.24
2022-10-30T02:19:44.417Z,41.58
2022-10-30T02:20:44.394Z,40.58
2022-10-30T02:21:44.409Z,38.45
2022-10-30T02:22:44.424Z,38.53
2022-10-30T02:23:44.368Z,39.36
2022-10-30T02:24:44.382Z,43.32
2022-10-30T02:25:44.355Z,38.48
2022-10-30T02:26:44.340Z,43.06
2022-10-30T02:27:44.330Z,43.31
2022-10-30T02:28:44.309Z,41.36
2022-10-30T02:29:45.342Z,40.06
2022-10-30T02:30:44.320Z,39.29
2022-10-30T02:31:44.308Z,48.97
2022-10-30T02:32:44.305Z,41.88
2022-10-30T02:33:44.301Z,43.86
2022-10-30T02:34:44.316Z,57.70
2022-10-30T02:35:44.269Z,38.60
2022-10-30T02:36:44.246Z,38.31
2022-10-30T02:37:45.253Z,39.53
2022-10-30T02:38:44.248Z,39.29
2022-10-30T02:39:44.237Z,38.48
2022-10-30T02:40:44.261Z,41.31
2022-10-30T02:41:44.227Z,38.21
2022-10-30T02:42:44.217Z,45.75
2022-10-30T02:43:44.214Z,38.39
2022-10-30T02:44:44.213Z,38.21
2022-10-30T02:45:44.218Z,38.33
2022-10-30T02:46:44.187Z,46.34
2022-10-30T02:47:44.171Z,47.97
2022-10-30T02:48:44.171Z,39.16
2022-10-30T02:49:44.156Z,55.25
2022-10-30T02:50:44.186Z,38.26
2022-10-30T02:51:44.150Z,38.25
2022-10-30T02:52:44.136Z,41.10
2022-10-30T02:53:44.128Z,43.68
2022-10-30T02:54:44.130Z,39.71
2022-10-30T02:55:44.141Z,45.00
2022-10-30T02:56:44.103Z,38.30
2022-10-30T02:57:44.121Z,47.04
2022-10-30T02:58:45.092Z,51.85
2022-10-30T02:59:44.083Z,54.33
2022-10-30T03:00:44.102Z,54.51
2022-10-30T03:01:44.156Z,55.39
2022-10-30T03:02:44.122Z,58.45
2022-10-30T03:03:44.067Z,54.98
2022-10-30T03:04:44.042Z,53.85
2022-10-30T03:05:44.059Z,53.43
2022-10-30T03:06:44.037Z,53.52
2022-10-30T03:07:44.024Z,53.34
2022-10-30T03:08:44.009Z,53.32
2022-10-30T03:09:43.999Z,56.15
2022-10-30T03:10:44.027Z,53.21
2022-10-30T03:11:43.993Z,53.28
2022-10-30T03:12:43.980Z,53.34
2022-10-30T03:13:43.976Z,53.43
2022-10-30T03:14:43.971Z,57.92
2022-10-30T03:15:44.001Z,39.79
2022-10-30T03:16:43.957Z,41.95
2022-10-30T03:17:43.953Z,42.06
2022-10-30T03:18:43.940Z,43.43
2022-10-30T03:19:43.949Z,55.55
2022-10-30T03:20:43.981Z,39.60
2022-10-30T03:21:43.910Z,41.18
2022-10-30T03:22:43.921Z,40.61
2022-10-30T03:23:43.897Z,41.87
2022-10-30T03:24:43.888Z,43.48
2022-10-30T03:25:43.911Z,44.39
2022-10-30T03:26:43.877Z,42.42
2022-10-30T03:27:43.872Z,39.41
2022-10-30T03:28:43.857Z,39.17
2022-10-30T03:29:43.852Z,43.09
2022-10-30T03:30:43.865Z,39.82
2022-10-30T03:31:43.830Z,41.35
2022-10-30T03:32:43.824Z,39.26
2022-10-30T03:33:43.818Z,41.39
2022-10-30T03:34:43.806Z,39.12
2022-10-30T03:35:43.821Z,42.49
2022-10-30T03:36:44.795Z,39.77
2022-10-30T03:37:43.783Z,40.96
2022-10-30T03:38:43.776Z,58.70
2022-10-30T03:39:43.782Z,44.77
2022-10-30T03:40:43.822Z,40.84
2022-10-30T03:41:43.755Z,40.29
2022-10-30T03:42:43.747Z,40.51
2022-10-30T03:43:43.743Z,40.98
2022-10-30T03:44:44.741Z,44.27
2022-10-30T03:45:43.768Z,41.90
2022-10-30T03:46:43.771Z,39.13
2022-10-30T03:47:43.719Z,39.62
2022-10-30T03:48:43.705Z,43.85
2022-10-30T03:49:43.694Z,43.88
2022-10-30T03:50:43.724Z,42.44
2022-10-30T03:51:43.679Z,43.32
2022-10-30T03:52:43.677Z,41.16
2022-10-30T03:53:43.679Z,50.04
2022-10-30T03:54:43.656Z,45.47
2022-10-30T03:55:43.643Z,45.12
2022-10-30T03:56:44.670Z,43.69
2022-10-30T03:57:43.648Z,49.49
2022-10-30T03:58:43.635Z,43.68
2022-10-30T03:59:43.618Z,46.30
2022-10-30T04:00:43.619Z,43.30
2022-10-30T04:01:43.896Z,43.59
2022-10-30T04:02:43.596Z,40.91
2022-10-30T04:03:43.589Z,57.40
2022-10-30T04:04:43.585Z,40.73
2022-10-30T04:05:43.585Z,42.81
2022-10-30T04:06:43.614Z,47.34
2022-10-30T04:07:43.568Z,40.61
2022-10-30T04:08:43.581Z,45.89
2022-10-30T04:09:43.542Z,54.46
2022-10-30T04:10:43.590Z,58.76
2022-10-30T04:11:43.550Z,57.44
2022-10-30T04:12:43.520Z,55.22
2022-10-30T04:13:43.518Z,55.73
2022-10-30T04:14:43.510Z,55.33
2022-10-30T04:15:43.534Z,55.15
2022-10-30T04:16:43.517Z,55.54
2022-10-30T04:17:43.484Z,54.54
2022-10-30T04:18:43.473Z,54.27
2022-10-30T04:19:43.457Z,55.17
2022-10-30T04:20:43.459Z,54.17
2022-10-30T04:21:43.473Z,54.71
2022-10-30T04:22:43.454Z,53.98
2022-10-30T04:23:43.435Z,53.35
2022-10-30T04:24:43.430Z,53.81
2022-10-30T04:25:43.423Z,55.25
2022-10-30T04:26:43.444Z,54.19
2022-10-30T04:27:43.434Z,43.08
2022-10-30T04:28:43.428Z,54.53
2022-10-30T04:29:43.426Z,47.96
2022-10-30T04:30:43.388Z,47.61
2022-10-30T04:31:43.412Z,48.20
2022-10-30T04:32:43.363Z,40.78
2022-10-30T04:33:43.354Z,56.96
2022-10-30T04:34:43.349Z,46.52
2022-10-30T04:35:43.355Z,45.33
2022-10-30T04:36:43.370Z,43.76
2022-10-30T04:37:43.330Z,46.24
2022-10-30T04:38:43.326Z,41.46
2022-10-30T04:39:46.306Z,47.79
2022-10-30T04:40:43.302Z,49.09
2022-10-30T04:41:43.344Z,41.69
2022-10-30T04:42:43.288Z,45.86
2022-10-30T04:43:43.279Z,43.01
2022-10-30T04:44:43.275Z,39.83
2022-10-30T04:45:43.286Z,47.19
2022-10-30T04:46:43.259Z,40.11
2022-10-30T04:47:43.307Z,44.39
2022-10-30T04:48:43.243Z,48.21
2022-10-30T04:49:43.235Z,42.34
2022-10-30T04:50:43.232Z,43.56
2022-10-30T04:51:43.244Z,41.54
2022-10-30T04:52:43.224Z,46.03
2022-10-30T04:53:43.225Z,42.86
2022-10-30T04:54:43.201Z,39.60
2022-10-30T04:55:43.188Z,44.03
2022-10-30T04:56:43.210Z,41.41
2022-10-30T04:57:43.169Z,40.86
2022-10-30T04:58:43.250Z,56.62
2022-10-30T04:59:43.154Z,42.11
2022-10-30T05:00:43.146Z,42.49
2022-10-30T05:01:43.242Z,39.69
2022-10-30T05:03:43.265Z,46.71
2022-10-30T05:04:43.115Z,47.19
2022-10-30T05:05:43.106Z,47.01
2022-10-30T05:06:43.113Z,42.07
2022-10-30T05:07:43.115Z,43.51
2022-10-30T05:08:43.084Z,37.66
2022-10-30T05:09:43.072Z,44.68
2022-10-30T05:10:43.072Z,37.41
2022-10-30T05:11:43.080Z,44.44
2022-10-30T05:12:43.086Z,46.45
2022-10-30T05:13:43.047Z,38.29
2022-10-30T05:14:43.050Z,40.82
2022-10-30T05:15:43.027Z,45.07
2022-10-30T05:16:43.022Z,44.20
2022-10-30T05:17:43.032Z,50.83
2022-10-30T05:18:43.010Z,52.43
2022-10-30T05:19:42.996Z,49.75
2022-10-30T05:20:42.989Z,42.00
2022-10-30T05:21:42.983Z,41.76
2022-10-30T05:22:43.001Z,45.44
2022-10-30T05:23:42.968Z,46.63
2022-10-30T05:24:42.958Z,42.78
2022-10-30T05:25:42.955Z,40.89
2022-10-30T05:26:42.975Z,41.48
2022-10-30T05:27:43.016Z,47.60
2022-10-30T05:28:42.929Z,46.14
2022-10-30T05:29:42.925Z,43.68
2022-10-30T05:30:42.911Z,43.60
2022-10-30T05:31:42.904Z,41.94
2022-10-30T05:32:42.929Z,44.86
2022-10-30T05:33:42.894Z,42.48
2022-10-30T05:34:42.885Z,42.95
2022-10-30T05:35:42.885Z,41.84
2022-10-30T05:36:42.882Z,50.79
2022-10-30T05:37:42.948Z,46.16
2022-10-30T05:38:42.856Z,44.86
2022-10-30T05:39:42.849Z,59.86
2022-10-30T05:40:42.844Z,40.03
2022-10-30T05:41:42.836Z,45.74
2022-10-30T05:42:42.857Z,46.37
2022-10-30T05:43:42.815Z,46.11
2022-10-30T05:44:59.753Z,44.21
2022-10-30T05:45:44.814Z,42.47
2022-10-30T05:46:42.885Z,43.34
2022-10-30T05:47:42.815Z,41.49
2022-10-30T05:48:42.783Z,46.46
2022-10-30T05:49:42.773Z,41.76
2022-10-30T05:50:42.770Z,43.57
2022-10-30T05:51:42.766Z,42.97
2022-10-30T05:52:42.792Z,54.77
2022-10-30T05:53:42.758Z,42.14
2022-10-30T05:54:42.745Z,41.55
2022-10-30T05:55:42.738Z,39.78
2022-10-30T05:56:46.599Z,44.92
2022-10-30T05:57:42.748Z,39.23
2022-10-30T05:58:42.718Z,40.06
2022-10-30T05:59:42.711Z,46.10
2022-10-30T06:00:42.706Z,39.78
2022-10-30T06:02:42.780Z,45.70
2022-10-30T06:03:42.701Z,54.06
2022-10-30T06:04:42.679Z,55.95
2022-10-30T06:05:42.663Z,54.92
2022-10-30T06:06:42.645Z,54.56
2022-10-30T06:07:42.689Z,44.33
2022-10-30T06:08:42.633Z,44.18
2022-10-30T06:09:42.639Z,45.94
2022-10-30T06:10:42.630Z,40.35
2022-10-30T06:11:42.620Z,39.98
2022-10-30T06:12:42.634Z,40.60
2022-10-30T06:13:42.595Z,46.19
2022-10-30T06:14:42.585Z,39.63
2022-10-30T06:15:42.581Z,43.00
2022-10-30T06:16:42.593Z,45.37
2022-10-30T06:17:42.594Z,40.24
2022-10-30T06:18:42.561Z,39.90
2022-10-30T06:19:42.551Z,44.43
2022-10-30T06:20:42.534Z,44.66
2022-10-30T06:21:42.537Z,46.00
2022-10-30T06:22:42.555Z,43.64
2022-10-30T06:23:42.520Z,44.25
2022-10-30T06:24:42.505Z,42.53
2022-10-30T06:25:42.499Z,39.98
2022-10-30T06:26:42.491Z,44.48
2022-10-30T06:27:42.517Z,52.86
2022-10-30T06:28:42.478Z,47.15
2022-10-30T06:29:42.471Z,46.01
2022-10-30T06:30:42.462Z,51.26
2022-10-30T06:31:42.449Z,45.31
2022-10-30T06:32:42.475Z,44.83
2022-10-30T06:33:42.438Z,53.88
2022-10-30T06:34:42.439Z,58.02
2022-10-30T06:35:42.436Z,56.05
2022-10-30T06:36:42.434Z,55.54
2022-10-30T06:37:42.441Z,61.95
2022-10-30T06:38:42.413Z,55.83
2022-10-30T06:39:42.401Z,55.97
2022-10-30T06:40:42.388Z,56.64
2022-10-30T06:41:42.407Z,55.77
2022-10-30T06:42:42.401Z,56.06
2022-10-30T06:43:42.361Z,50.13
2022-10-30T06:44:42.352Z,41.37
2022-10-30T06:45:42.360Z,48.00
2022-10-30T06:46:42.340Z,41.97
2022-10-30T06:47:42.359Z,49.01
2022-10-30T06:48:42.328Z,43.10
2022-10-30T06:49:42.325Z,46.65
2022-10-30T06:50:42.312Z,44.06
2022-10-30T06:51:42.305Z,46.63
2022-10-30T06:52:42.322Z,45.68
2022-10-30T06:53:42.292Z,41.58
2022-10-30T06:54:42.279Z,44.43
2022-10-30T06:55:42.275Z,46.92
2022-10-30T06:56:42.269Z,46.03
2022-10-30T06:57:42.348Z,45.76
2022-10-30T06:58:42.245Z,44.87
2022-10-30T06:59:42.248Z,44.22
2022-10-30T07:00:42.298Z,44.09
2022-10-30T07:01:42.309Z,44.28
2022-10-30T07:02:42.257Z,49.26
2022-10-30T07:03:42.222Z,42.57
2022-10-30T07:04:42.200Z,47.21
2022-10-30T07:05:42.196Z,44.81
2022-10-30T07:06:42.193Z,51.04
2022-10-30T07:07:42.215Z,40.17
2022-10-30T07:08:42.174Z,47.93
2022-10-30T07:09:42.172Z,46.29
2022-10-30T07:10:42.169Z,49.13
2022-10-30T07:11:42.156Z,43.46
2022-10-30T07:12:42.181Z,46.45
2022-10-30T07:13:42.146Z,44.86
2022-10-30T07:14:42.133Z,44.69
2022-10-30T07:16:42.111Z,48.13
2022-10-30T07:17:42.140Z,49.58
2022-10-30T07:18:42.103Z,48.62
2022-10-30T07:19:42.091Z,53.89
2022-10-30T07:20:42.081Z,54.51
2022-10-30T07:21:42.082Z,50.43
2022-10-30T07:22:42.100Z,52.61
2022-10-30T07:23:42.056Z,46.23
2022-10-30T07:24:42.054Z,47.99
2022-10-30T07:25:42.039Z,44.64
2022-10-30T07:26:42.040Z,46.53
2022-10-30T07:27:42.055Z,42.42
2022-10-30T07:28:42.023Z,45.52
2022-10-30T07:29:42.015Z,51.34
2022-10-30T07:30:42.013Z,60.40
2022-10-30T07:31:49.667Z,53.71
2022-10-30T07:32:44.019Z,54.98
2022-10-30T07:33:41.982Z,53.59
2022-10-30T07:34:41.974Z,54.15
2022-10-30T07:35:41.966Z,54.34
2022-10-30T07:36:41.959Z,50.79
2022-10-30T07:37:41.985Z,54.34
2022-10-30T07:38:41.949Z,49.35
2022-10-30T07:39:41.937Z,44.04
2022-10-30T07:40:41.939Z,49.24
2022-10-30T07:41:45.985Z,44.75
2022-10-30T07:42:43.958Z,50.48
2022-10-30T07:43:42.914Z,51.08
2022-10-30T07:45:15.927Z,49.46
2022-10-30T07:45:41.899Z,52.47
2022-10-30T07:46:41.901Z,47.94
2022-10-30T07:47:41.899Z,44.69
2022-10-30T07:48:42.873Z,50.30
2022-10-30T07:49:41.864Z,45.88
2022-10-30T07:50:41.853Z,49.18
2022-10-30T07:51:41.853Z,49.50
2022-10-30T07:52:41.839Z,48.46
2022-10-30T07:53:41.861Z,48.30
2022-10-30T07:54:41.822Z,52.74
2022-10-30T07:55:41.820Z,51.91
2022-10-30T07:56:41.828Z,49.12
2022-10-30T07:57:42.897Z,58.10
2022-10-30T07:58:45.405Z,50.08
2022-10-30T07:59:42.837Z,50.58
2022-10-30T08:00:41.779Z,50.92
2022-10-30T08:01:41.851Z,51.67
2022-10-30T08:02:41.927Z,48.03
2022-10-30T08:03:41.768Z,47.53
2022-10-30T08:04:41.745Z,45.22
2022-10-30T08:05:41.739Z,43.84
2022-10-30T08:06:41.736Z,49.87
2022-10-30T08:07:41.728Z,54.10
2022-10-30T08:08:43.356Z,50.36
2022-10-30T08:09:42.713Z,51.01
2022-10-30T08:10:41.699Z,47.91
2022-10-30T08:11:41.700Z,53.26
2022-10-30T08:12:41.688Z,56.48
2022-10-30T08:13:41.701Z,50.31
2022-10-30T08:14:41.670Z,51.98
2022-10-30T08:15:41.667Z,52.96
2022-10-30T08:16:41.704Z,51.92
2022-10-30T08:17:41.648Z,53.96
2022-10-30T08:18:41.664Z,52.60
2022-10-30T08:19:41.631Z,50.77
2022-10-30T08:20:41.650Z,47.88
2022-10-30T08:21:41.617Z,54.83
2022-10-30T08:22:41.606Z,50.58
2022-10-30T08:23:41.661Z,49.98
2022-10-30T08:24:41.593Z,54.61
2022-10-30T08:25:41.587Z,54.87
2022-10-30T08:26:41.581Z,49.22
2022-10-30T08:27:41.577Z,51.47
2022-10-30T08:28:41.595Z,55.45
2022-10-30T08:29:41.558Z,49.13
2022-10-30T08:30:41.559Z,50.82
2022-10-30T08:31:41.547Z,53.92
2022-10-30T08:32:41.540Z,50.59
2022-10-30T08:33:41.559Z,48.25
2022-10-30T08:34:41.519Z,54.64
2022-10-30T08:35:41.512Z,47.79
2022-10-30T08:36:43.974Z,51.46
2022-10-30T08:37:42.501Z,50.95
2022-10-30T08:38:41.518Z,51.85
2022-10-30T08:39:41.487Z,51.48
2022-10-30T08:40:41.496Z,52.68
2022-10-30T08:41:41.469Z,55.05
2022-10-30T08:42:41.457Z,58.80
2022-10-30T08:43:41.478Z,56.10
2022-10-30T08:44:41.444Z,57.05
2022-10-30T08:45:41.435Z,56.39
2022-10-30T08:46:41.433Z,51.87
2022-10-30T08:47:41.422Z,51.18
2022-10-30T08:48:41.443Z,48.40
2022-10-30T08:49:41.406Z,50.95
2022-10-30T08:50:41.400Z,49.94
2022-10-30T08:51:41.391Z,45.94
2022-10-30T08:52:41.379Z,51.72
2022-10-30T08:53:41.402Z,46.31
2022-10-30T08:54:41.370Z,47.04
2022-10-30T08:55:41.361Z,50.75
2022-10-30T08:56:41.354Z,47.31
2022-10-30T08:57:41.345Z,52.49
2022-10-30T08:58:41.366Z,53.90
2022-10-30T08:59:41.333Z,52.98
2022-10-30T09:00:41.324Z,50.08
2022-10-30T09:01:41.404Z,51.23
2022-10-30T09:02:41.502Z,51.15
2022-10-30T09:03:41.330Z,50.90
2022-10-30T09:04:41.314Z,49.68
2022-10-30T09:05:41.284Z,49.14
2022-10-30T09:06:41.286Z,50.47
2022-10-30T09:07:41.280Z,54.23
2022-10-30T09:08:41.288Z,52.12
2022-10-30T09:09:41.254Z,44.15
2022-10-30T09:10:41.250Z,46.10
2022-10-30T09:11:41.241Z,52.19
2022-10-30T09:12:41.239Z,45.81
2022-10-30T09:13:41.254Z,50.16
2022-10-30T09:14:41.218Z,55.65
2022-10-30T09:15:41.211Z,57.55
2022-10-30T09:16:41.216Z,48.15
2022-10-30T09:17:41.195Z,55.50
2022-10-30T09:18:41.214Z,53.02
2022-10-30T09:19:41.202Z,52.67
2022-10-30T09:20:41.176Z,50.12
2022-10-30T09:21:41.168Z,51.88
2022-10-30T09:22:41.157Z,54.20
2022-10-30T09:23:41.176Z,52.76
2022-10-30T09:24:41.143Z,50.18
2022-10-30T09:25:41.140Z,52.65
2022-10-30T09:26:41.129Z,48.06
2022-10-30T09:27:41.117Z,50.20
2022-10-30T09:28:41.141Z,52.61
2022-10-30T09:29:41.112Z,52.72
2022-10-30T09:30:41.104Z,53.01
2022-10-30T09:31:41.091Z,55.67
2022-10-30T09:32:41.077Z,53.93
2022-10-30T09:33:41.100Z,52.61
2022-10-30T09:34:41.079Z,53.17
2022-10-30T09:35:41.058Z,54.59
2022-10-30T09:36:41.049Z,50.74
2022-10-30T09:37:41.042Z,49.30
2022-10-30T09:38:41.061Z,48.80
2022-10-30T09:39:41.026Z,55.29
2022-10-30T09:40:41.018Z,51.13
2022-10-30T09:41:41.019Z,53.31
2022-10-30T09:42:40.999Z,52.71
2022-10-30T09:43:41.018Z,52.78
2022-10-30T09:44:40.988Z,50.13
2022-10-30T09:45:40.982Z,52.81
2022-10-30T09:46:40.969Z,53.06
2022-10-30T09:47:40.964Z,50.61
2022-10-30T09:48:40.985Z,53.60
2022-10-30T09:49:40.947Z,53.51
2022-10-30T09:50:40.944Z,52.06
2022-10-30T09:51:40.933Z,50.11
2022-10-30T09:52:40.927Z,45.77
2022-10-30T09:53:40.961Z,53.86
2022-10-30T09:54:40.905Z,51.17
2022-10-30T09:55:40.902Z,51.38
2022-10-30T09:56:40.896Z,53.91
2022-10-30T09:57:40.889Z,52.83
2022-10-30T09:58:40.891Z,53.98
2022-10-30T09:59:40.899Z,55.38
2022-10-30T10:00:40.867Z,51.51
2022-10-30T10:01:40.959Z,58.96
2022-10-30T10:02:40.953Z,55.11
2022-10-30T10:03:40.910Z,52.68
2022-10-30T10:04:40.858Z,53.17
2022-10-30T10:05:40.831Z,52.52
2022-10-30T10:06:40.826Z,56.28
2022-10-30T10:07:40.816Z,56.19
2022-10-30T10:08:40.808Z,54.66
2022-10-30T10:09:40.868Z,52.94
2022-10-30T10:10:40.792Z,58.15
2022-10-30T10:11:40.788Z,51.45
2022-10-30T10:12:40.781Z,55.18
2022-10-30T10:13:40.770Z,48.92
2022-10-30T10:14:40.787Z,51.51
2022-10-30T10:15:40.752Z,53.73
2022-10-30T10:16:40.751Z,53.19
2022-10-30T10:17:40.738Z,49.99
2022-10-30T10:18:40.741Z,53.96
2022-10-30T10:19:40.749Z,52.02
2022-10-30T10:20:40.708Z,53.90
2022-10-30T10:21:41.705Z,54.53
2022-10-30T10:22:40.702Z,49.53
2022-10-30T10:23:40.694Z,53.92
2022-10-30T10:24:40.708Z,52.79
2022-10-30T10:25:40.675Z,51.26
2022-10-30T10:26:40.673Z,56.57
2022-10-30T10:27:40.662Z,55.32
2022-10-30T10:28:40.652Z,53.07
2022-10-30T10:29:40.671Z,47.20
2022-10-30T10:30:40.647Z,55.08
2022-10-30T10:31:40.636Z,55.04
2022-10-30T10:32:40.629Z,51.54
2022-10-30T10:33:40.615Z,54.96
2022-10-30T10:34:40.681Z,55.27
2022-10-30T10:35:40.609Z,66.59
2022-10-30T10:36:40.592Z,64.61
2022-10-30T10:37:40.588Z,57.00
2022-10-30T10:38:40.575Z,50.65
2022-10-30T10:39:40.603Z,56.22
2022-10-30T10:40:40.561Z,50.17
2022-10-30T10:41:40.555Z,51.76
2022-10-30T10:42:40.547Z,57.51
2022-10-30T10:43:40.545Z,54.45
2022-10-30T10:44:40.559Z,53.23
2022-10-30T10:45:40.532Z,52.48
2022-10-30T10:46:40.513Z,52.29
2022-10-30T10:47:40.510Z,53.48
2022-10-30T10:48:40.513Z,52.49
2022-10-30T10:49:40.527Z,51.04
2022-10-30T10:50:40.487Z,55.16
2022-10-30T10:51:40.478Z,57.76
2022-10-30T10:52:40.473Z,54.75
2022-10-30T10:53:40.468Z,54.09
2022-10-30T10:54:40.456Z,53.17
2022-10-30T10:55:40.479Z,49.47
2022-10-30T10:56:40.441Z,53.72
2022-10-30T10:57:40.434Z,51.17
2022-10-30T10:58:40.426Z,51.95
2022-10-30T10:59:40.450Z,54.19
2022-10-30T11:00:40.407Z,51.60
2022-10-30T11:01:40.551Z,50.23
2022-10-30T11:02:40.456Z,55.20
2022-10-30T11:03:40.392Z,58.52
2022-10-30T11:04:40.380Z,54.19
2022-10-30T11:05:40.403Z,55.83
2022-10-30T11:06:40.370Z,51.28
2022-10-30T11:07:40.361Z,54.52
2022-10-30T11:08:40.350Z,53.15
2022-10-30T11:09:40.348Z,53.80
2022-10-30T11:10:40.362Z,54.48
2022-10-30T11:11:40.327Z,50.69
2022-10-30T11:12:40.319Z,54.18
2022-10-30T11:13:40.315Z,51.99
2022-10-30T11:14:40.307Z,48.34
2022-10-30T11:15:40.327Z,52.35
2022-10-30T11:16:40.289Z,51.52
2022-10-30T11:17:40.285Z,52.49
2022-10-30T11:18:40.269Z,54.20
2022-10-30T11:19:40.273Z,50.37
2022-10-30T11:20:40.291Z,53.71
2022-10-30T11:21:40.256Z,53.46
2022-10-30T11:22:40.248Z,51.48
2022-10-30T11:23:40.249Z,40.38
2022-10-30T11:24:40.225Z,54.98
2022-10-30T11:25:40.247Z,53.83
2022-10-30T11:26:40.215Z,54.64
2022-10-30T11:27:40.203Z,58.32
2022-10-30T11:28:40.196Z,54.98
2022-10-30T11:29:40.192Z,52.13
2022-10-30T11:30:40.227Z,50.16
2022-10-30T11:31:40.230Z,53.22
2022-10-30T11:32:40.188Z,49.75
2022-10-30T11:33:40.164Z,51.82
2022-10-30T11:34:40.153Z,48.00
2022-10-30T11:35:40.170Z,49.41
2022-10-30T11:36:40.143Z,54.56
2022-10-30T11:37:40.131Z,55.30
2022-10-30T11:38:40.127Z,52.11
2022-10-30T11:39:40.117Z,50.17
2022-10-30T11:40:40.135Z,51.60
2022-10-30T11:41:40.101Z,53.93
2022-10-30T11:42:40.091Z,51.88
2022-10-30T11:43:40.081Z,51.68
2022-10-30T11:44:40.076Z,50.33
2022-10-30T11:45:40.104Z,56.03
2022-10-30T11:46:40.061Z,53.55
2022-10-30T11:47:40.071Z,50.23
2022-10-30T11:48:40.046Z,46.75
2022-10-30T11:49:40.044Z,54.72
2022-10-30T11:50:40.061Z,49.06
2022-10-30T11:51:40.104Z,50.27
2022-10-30T11:52:40.018Z,53.20
2022-10-30T11:53:40.038Z,54.20
2022-10-30T11:54:40.004Z,54.75
2022-10-30T11:55:40.026Z,52.67
2022-10-30T11:56:40.008Z,55.74
2022-10-30T11:57:39.981Z,55.41
2022-10-30T11:58:39.973Z,52.24
2022-10-30T11:59:39.966Z,53.84
2022-10-30T12:00:39.962Z,53.74
2022-10-30T12:01:40.032Z,53.84
2022-10-30T12:02:39.945Z,53.52
2022-10-30T12:03:39.934Z,48.88
2022-10-30T12:04:39.925Z,54.21
2022-10-30T12:05:41.644Z,56.37
2022-10-30T12:06:39.909Z,52.23
2022-10-30T12:07:39.900Z,49.58
2022-10-30T12:08:39.888Z,51.72
2022-10-30T12:09:39.882Z,48.85
2022-10-30T12:10:39.871Z,57.64
2022-10-30T12:11:39.896Z,54.95
2022-10-30T12:12:39.857Z,55.87
2022-10-30T12:13:39.863Z,51.04
2022-10-30T12:14:39.852Z,53.25
2022-10-30T12:15:39.848Z,53.09
2022-10-30T12:16:39.861Z,53.47
2022-10-30T12:17:39.820Z,53.71
2022-10-30T12:18:39.814Z,51.36
2022-10-30T12:19:39.808Z,51.87
2022-10-30T12:20:39.804Z,52.74
2022-10-30T12:21:39.833Z,50.32
2022-10-30T12:22:39.786Z,53.71
2022-10-30T12:23:39.780Z,50.85
2022-10-30T12:24:39.812Z,53.02
2022-10-30T12:25:39.764Z,51.98
2022-10-30T12:26:39.786Z,56.66
2022-10-30T12:27:39.744Z,54.25
2022-10-30T12:28:39.743Z,54.11
2022-10-30T12:30:06.873Z,53.17
2022-10-30T12:30:41.731Z,49.42
2022-10-30T12:31:39.742Z,55.03
2022-10-30T12:32:39.870Z,50.35
2022-10-30T12:33:39.702Z,54.00
2022-10-30T12:34:39.700Z,47.95
2022-10-30T12:35:39.687Z,56.76
2022-10-30T12:36:39.707Z,57.15
2022-10-30T12:37:39.673Z,51.65
2022-10-30T12:38:39.703Z,51.73
2022-10-30T12:39:39.658Z,51.44
2022-10-30T12:40:39.653Z,50.86
2022-10-30T12:41:39.667Z,52.56
2022-10-30T12:42:39.643Z,53.86
2022-10-30T12:43:39.641Z,51.40
2022-10-30T12:44:39.622Z,54.10
2022-10-30T12:45:39.613Z,52.43
2022-10-30T12:46:39.634Z,47.77
2022-10-30T12:47:39.595Z,55.16
2022-10-30T12:48:39.589Z,53.48
2022-10-30T12:49:39.583Z,48.65
2022-10-30T12:50:39.638Z,52.48
2022-10-30T12:51:39.600Z,51.81
2022-10-30T12:52:39.564Z,51.89
2022-10-30T12:53:39.564Z,55.11
2022-10-30T12:54:39.550Z,53.53
2022-10-30T12:55:39.542Z,47.83
2022-10-30T12:56:39.559Z,48.57
2022-10-30T12:57:39.529Z,60.08
2022-10-30T12:58:39.536Z,52.84